Time;durP1;ratioP1;P1;durP2;ratioP2;P2;SDS_P1;SDS_P2;PMS_P1;PMS_P2;Temp;Humidity;BMP_temperature;BMP_pressure;BME280_temperature;BME280_humidity;BME280_pressure;Samples;Min_cycle;Max_cycle;Signal;HPM_P1;HPM_P2
2021/07/03 00:00:03;;;;;;;;;;;;;;;22.97;53.47;101213.69;2213427;39;116468;-56
2021/07/03 00:01:35;;;;;;;;;;;;;;;22.97;53.49;101220.16;2211805;39;115231;-56
2021/07/03 00:03:07;;;;;;;;;;;;;;;22.99;53.41;101211.38;2211263;39;115420;-56
2021/07/03 00:04:38;;;;;;;;;;;;;;;22.96;53.39;101215.66;2211811;39;115507;-56
2021/07/03 00:06:10;;;;;;;;;;;;;;;22.98;53.52;101206.91;2211194;39;115524;-56
2021/07/03 00:07:42;;;;;;;;;;;;;;;22.98;53.56;101215.34;2211365;39;115539;-57
2021/07/03 00:09:14;;;;;;;;;;;;;;;22.97;53.39;101206.06;2210634;39;115653;-56
2021/07/03 00:10:45;;;;;;;;;;;;;;;22.98;53.64;101212.53;2210768;39;116079;-56
2021/07/03 00:12:17;;;;;;;;;;;;;;;22.97;53.63;101210.88;2210984;39;115482;-56
2021/07/03 00:13:48;;;;;;;;;;;;;;;22.97;53.63;101206.06;2210053;39;114842;-56
2021/07/03 00:15:23;;;;;;;;;;;;;;;22.96;53.67;101207.22;2211398;39;115587;-56
2021/07/03 00:16:55;;;;;;;;;;;;;;;22.98;53.66;101209.72;2211807;39;115526;-56
2021/07/03 00:18:27;;;;;;;;;;;;;;;22.97;53.72;101211.69;2211391;39;115485;-56
2021/07/03 00:19:59;;;;;;;;;;;;;;;22.98;53.72;101206.91;2206806;39;115652;-56
2021/07/03 00:21:30;;;;;;;;;;;;;;;22.97;53.68;101214.53;2209700;39;114962;-62
2021/07/03 00:23:04;;;;;;;;;;;;;;;22.96;53.61;101215.66;2209900;39;114889;-56
2021/07/03 00:24:35;;;;;;;;;;;;;;;22.99;53.50;101212.19;2208171;39;113688;-56
2021/07/03 00:26:07;;;;;;;;;;;;;;;22.98;53.39;101209.72;2211178;39;114381;-57
2021/07/03 00:27:39;;;;;;;;;;;;;;;22.98;53.31;101215.34;2211410;39;114125;-56
2021/07/03 00:29:12;;;;;;;;;;;;;;;22.98;53.75;101210.56;2211438;39;113682;-56
2021/07/03 00:30:43;;;;;;;;;;;;;;;23.01;53.61;101209.91;2211542;39;113817;-56
2021/07/03 00:32:15;;;;;;;;;;;;;;;22.98;53.70;101213.38;2211517;39;113892;-56
2021/07/03 00:33:47;;;;;;;;;;;;;;;23.02;53.34;101207.94;2211234;39;113733;-56
2021/07/03 00:35:18;;;;;;;;;;;;;;;23.00;53.73;101202.59;2210101;39;113992;-56
2021/07/03 00:36:50;;;;;;;;;;;;;;;22.97;53.70;101208.88;2210665;39;113809;-56
2021/07/03 00:38:22;;;;;;;;;;;;;;;22.97;53.71;101214.53;2211553;39;113796;-56
2021/07/03 00:39:55;;;;;;;;;;;;;;;22.98;53.90;101216.19;2208103;39;114087;-56
2021/07/03 00:41:27;;;;;;;;;;;;;;;23.00;53.73;101198.94;2208968;39;113826;-56
2021/07/03 00:42:58;;;;;;;;;;;;;;;22.99;53.87;101200.94;2209050;39;113652;-55
2021/07/03 00:44:33;;;;;;;;;;;;;;;23.00;54.02;101201.75;2211811;39;113737;-58
2021/07/03 00:46:05;;;;;;;;;;;;;;;23.04;54.10;101197.16;2208013;39;114986;-56
2021/07/03 00:47:37;;;;;;;;;;;;;;;22.99;54.09;101200.09;2210822;39;114836;-59
2021/07/03 00:49:08;;;;;;;;;;;;;;;23.00;54.18;101194.16;2211388;39;114935;-57
2021/07/03 00:50:40;;;;;;;;;;;;;;;23.02;54.32;101199.47;2211670;39;114718;-56
2021/07/03 00:52:12;;;;;;;;;;;;;;;23.01;54.38;101186.53;2207714;39;114733;-56
2021/07/03 00:53:43;;;;;;;;;;;;;;;22.98;54.49;101190.81;2211093;39;115600;-56
2021/07/03 00:55:16;;;;;;;;;;;;;;;22.97;54.63;101189.16;2211606;39;115486;-58
2021/07/03 00:57:01;;;;;;;;;;;;;;;23.01;54.67;101181.72;2209513;39;114021;-57
2021/07/03 00:58:33;;;;;;;;;;;;;;;22.99;54.77;101180.34;2210596;39;114705;-56
2021/07/03 01:00:05;;;;;;;;;;;;;;;23.01;54.88;101184.53;2210757;39;114848;-57
2021/07/03 01:01:37;;;;;;;;;;;;;;;23.00;54.81;101173.56;2211531;39;113901;-57
2021/07/03 01:03:09;;;;;;;;;;;;;;;23.01;54.78;101175.25;2211352;39;114865;-56
2021/07/03 01:04:41;;;;;;;;;;;;;;;22.97;54.99;101168.59;2210958;39;113886;-56
2021/07/03 01:06:12;;;;;;;;;;;;;;;22.98;54.83;101161.81;2209451;39;114981;-56
2021/07/03 01:07:44;;;;;;;;;;;;;;;22.98;55.04;101162.66;2208096;39;115413;-57
2021/07/03 01:09:15;;;;;;;;;;;;;;;22.98;54.92;101159.00;2208318;39;115841;-56
2021/07/03 01:10:47;;;;;;;;;;;;;;;22.99;54.82;101163.44;2207447;39;115597;-56
2021/07/03 01:12:19;;;;;;;;;;;;;;;22.98;54.89;101161.81;2210481;39;114652;-56
2021/07/03 01:13:50;;;;;;;;;;;;;;;22.98;55.05;101162.66;2211236;39;115429;-56
2021/07/03 01:15:23;;;;;;;;;;;;;;;23.00;55.00;101165.13;2211109;39;116040;-56
2021/07/03 01:16:54;;;;;;;;;;;;;;;22.97;54.93;101172.25;2214856;39;115535;-56
2021/07/03 01:18:26;;;;;;;;;;;;;;;23.01;54.97;101172.44;2210949;39;115600;-57
2021/07/03 01:19:57;;;;;;;;;;;;;;;23.00;55.06;101162.31;2210506;39;115636;-56
2021/07/03 01:21:29;;;;;;;;;;;;;;;22.99;54.99;101155.00;2210301;39;115562;-56
2021/07/03 01:23:01;;;;;;;;;;;;;;;22.99;55.04;101146.53;2210002;39;115610;-56
2021/07/03 01:24:33;;;;;;;;;;;;;;;23.00;55.25;101151.88;2210639;39;115890;-56
2021/07/03 01:26:04;;;;;;;;;;;;;;;22.99;55.20;101152.19;2211030;39;115636;-56
2021/07/03 01:27:36;;;;;;;;;;;;;;;22.99;55.33;101155.00;2213961;39;115500;-56
2021/07/03 01:29:08;;;;;;;;;;;;;;;23.00;55.19;101151.03;2210345;39;113774;-56
2021/07/03 01:30:39;;;;;;;;;;;;;;;22.99;55.29;101147.38;2209811;39;113918;-56
2021/07/03 01:32:11;;;;;;;;;;;;;;;22.99;55.30;101144.56;2206232;39;113624;-56
2021/07/03 01:33:43;;;;;;;;;;;;;;;22.99;55.24;101141.75;2208569;39;113864;-56
2021/07/03 01:35:14;;;;;;;;;;;;;;;23.00;55.04;101134.97;2210747;39;113870;-57
2021/07/03 01:36:46;;;;;;;;;;;;;;;22.99;55.22;101130.47;2211152;39;113705;-57
2021/07/03 01:38:19;;;;;;;;;;;;;;;22.99;55.35;101124.00;2208133;39;114001;-57
2021/07/03 01:39:51;;;;;;;;;;;;;;;22.99;55.45;101115.53;2215997;39;113889;-56
2021/07/03 01:41:22;;;;;;;;;;;;;;;22.99;55.32;101118.38;2210781;39;113748;-56
2021/07/03 01:42:54;;;;;;;;;;;;;;;22.98;55.44;101122.34;2208773;39;114095;-56
2021/07/03 01:44:27;;;;;;;;;;;;;;;22.99;55.53;101112.72;2211171;39;114134;-58
2021/07/03 01:45:59;;;;;;;;;;;;;;;22.99;55.43;101118.38;2208710;39;113627;-56
2021/07/03 01:47:31;;;;;;;;;;;;;;;22.99;55.60;101115.53;2211101;39;113662;-56
2021/07/03 01:49:04;;;;;;;;;;;;;;;23.00;55.49;101117.22;2211519;39;113998;-56
2021/07/03 01:50:35;;;;;;;;;;;;;;;22.98;55.42;101119.53;2210397;39;113912;-56
2021/07/03 01:52:07;;;;;;;;;;;;;;;22.99;55.72;101115.53;2210740;39;114685;-56
2021/07/03 01:53:39;;;;;;;;;;;;;;;22.97;55.56;101113.06;2210133;39;114769;-56
2021/07/03 01:55:11;;;;;;;;;;;;;;;23.01;55.55;101104.78;2206997;39;113716;-56
2021/07/03 01:56:43;;;;;;;;;;;;;;;23.02;55.68;101104.50;2210571;39;114729;-56
2021/07/03 01:58:20;;;;;;;;;;;;;;;23.01;55.51;101097.19;2210847;39;114738;-56
2021/07/03 01:59:52;;;;;;;;;;;;;;;23.01;55.57;101096.34;2211923;39;115570;-57
2021/07/03 02:01:25;;;;;;;;;;;;;;;23.02;55.55;101100.84;2211385;39;114922;-56
2021/07/03 02:02:57;;;;;;;;;;;;;;;23.02;55.49;101098.00;2211099;39;115200;-57
2021/07/03 02:04:29;;;;;;;;;;;;;;;23.01;55.70;101107.63;2211929;39;114869;-56
2021/07/03 02:06:03;;;;;;;;;;;;;;;23.02;55.40;101114.94;2209619;39;114133;-56
2021/07/03 02:07:35;;;;;;;;;;;;;;;23.01;55.51;101107.63;2209671;39;114720;-56
2021/07/03 02:09:07;;;;;;;;;;;;;;;23.00;55.61;101106.78;2211000;39;114487;-56
2021/07/03 02:10:39;;;;;;;;;;;;;;;23.00;55.61;101103.13;2209662;39;114770;-56
2021/07/03 02:12:11;;;;;;;;;;;;;;;22.99;55.70;101098.63;2213916;39;114794;-56
2021/07/03 02:13:42;;;;;;;;;;;;;;;22.99;55.71;101098.63;2212359;39;114915;-56
2021/07/03 02:15:14;;;;;;;;;;;;;;;22.98;55.70;101097.84;2208057;39;115539;-56
2021/07/03 02:16:45;;;;;;;;;;;;;;;22.98;55.85;101088.53;2208531;39;115632;-56
2021/07/03 02:18:17;;;;;;;;;;;;;;;22.97;55.82;101087.72;2209877;39;116039;-57
2021/07/03 02:19:49;;;;;;;;;;;;;;;22.99;55.72;101090.19;2211329;39;114856;-56
2021/07/03 02:21:20;;;;;;;;;;;;;;;22.99;55.88;101082.56;2211528;39;114835;-56
2021/07/03 02:22:52;;;;;;;;;;;;;;;22.98;55.79;101089.38;2211903;39;115595;-56
2021/07/03 02:24:24;;;;;;;;;;;;;;;22.98;55.86;101085.72;2211514;39;115542;-56
2021/07/03 02:25:55;;;;;;;;;;;;;;;22.99;55.94;101091.03;2212116;39;115955;-58
2021/07/03 02:27:27;;;;;;;;;;;;;;;22.99;55.87;101093.00;2211672;39;115535;-56
2021/07/03 02:28:59;;;;;;;;;;;;;;;22.99;55.87;101098.63;2211700;39;115590;-56
2021/07/03 02:30:31;;;;;;;;;;;;;;;22.99;55.82;101098.63;2211453;39;115488;-56
2021/07/03 02:32:03;;;;;;;;;;;;;;;22.97;55.74;101098.97;2211270;39;114847;-56
2021/07/03 02:33:34;;;;;;;;;;;;;;;22.98;55.83;101099.81;2214006;39;115956;-56
2021/07/03 02:35:07;;;;;;;;;;;;;;;22.97;55.65;101096.16;2212014;39;114046;-56
2021/07/03 02:36:38;;;;;;;;;;;;;;;22.97;55.79;101090.53;2211818;39;113828;-57
2021/07/03 02:38:10;;;;;;;;;;;;;;;23.00;55.70;101077.75;2211767;39;113913;-56
2021/07/03 02:39:43;;;;;;;;;;;;;;;22.99;55.63;101076.09;2209792;39;113816;-56
2021/07/03 02:41:20;;;;;;;;;;;;;;;22.98;55.59;101075.28;2213676;39;114181;-56
2021/07/03 02:42:52;;;;;;;;;;;;;;;22.99;55.70;101078.91;2211908;39;113714;-56
2021/07/03 02:44:23;;;;;;;;;;;;;;;22.99;55.66;101081.72;2209850;39;113815;-56
2021/07/03 02:45:55;;;;;;;;;;;;;;;22.98;55.73;101071.63;2210547;39;113741;-57
2021/07/03 02:47:26;;;;;;;;;;;;;;;22.98;55.66;101074.44;2211578;39;113630;-56
2021/07/03 02:48:58;;;;;;;;;;;;;;;22.98;55.64;101080.91;2210924;39;113720;-56
2021/07/03 02:50:30;;;;;;;;;;;;;;;22.99;55.68;101076.09;2211382;39;113801;-56
2021/07/03 02:52:01;;;;;;;;;;;;;;;22.99;55.73;101079.75;2211062;39;113719;-56
2021/07/03 02:53:33;;;;;;;;;;;;;;;22.99;55.62;101076.09;2211831;39;114796;-56
2021/07/03 02:55:05;;;;;;;;;;;;;;;22.98;55.70;101075.28;2214419;39;113846;-55
2021/07/03 02:56:37;;;;;;;;;;;;;;;22.99;55.74;101073.28;2210641;39;116553;-56
2021/07/03 02:58:09;;;;;;;;;;;;;;;22.98;55.74;101075.28;2207930;39;114770;-56
2021/07/03 02:59:40;;;;;;;;;;;;;;;22.99;55.65;101064.81;2211012;39;114749;-56
2021/07/03 03:01:12;;;;;;;;;;;;;;;23.00;55.84;101060.84;2211112;39;114764;-55
2021/07/03 03:02:44;;;;;;;;;;;;;;;22.99;55.86;101065.66;2211434;39;113966;-56
2021/07/03 03:04:16;;;;;;;;;;;;;;;22.99;55.75;101067.63;2211877;39;113852;-55
2021/07/03 03:05:47;;;;;;;;;;;;;;;22.99;55.79;101064.81;2211452;39;114324;-56
2021/07/03 03:07:19;;;;;;;;;;;;;;;22.99;55.77;101068.47;2206766;39;114759;-56
2021/07/03 03:08:50;;;;;;;;;;;;;;;22.97;55.89;101065.16;2211133;39;114726;-56
2021/07/03 03:10:22;;;;;;;;;;;;;;;22.98;55.79;101058.38;2212228;39;115262;-56
2021/07/03 03:11:54;;;;;;;;;;;;;;;23.00;55.95;101058.03;2211357;39;115126;-56
2021/07/03 03:13:26;;;;;;;;;;;;;;;22.99;55.97;101050.72;2211468;39;114727;-56
2021/07/03 03:14:57;;;;;;;;;;;;;;;22.98;55.85;101040.63;2208378;39;113870;-56
2021/07/03 03:16:29;;;;;;;;;;;;;;;22.99;55.93;101045.94;2214052;39;114698;-56
2021/07/03 03:18:01;;;;;;;;;;;;;;;22.98;55.94;101049.94;2211102;39;116274;-56
2021/07/03 03:19:33;;;;;;;;;;;;;;;22.98;55.90;101049.09;2211504;39;116088;-56
2021/07/03 03:21:05;;;;;;;;;;;;;;;22.97;55.83;101048.25;2207874;39;116164;-57
2021/07/03 03:22:37;;;;;;;;;;;;;;;22.96;55.96;101052.22;2211052;39;115511;-56
2021/07/03 03:24:09;;;;;;;;;;;;;;;22.98;56.00;101049.09;2211540;39;115320;-56
2021/07/03 03:25:41;;;;;;;;;;;;;;;23.00;55.98;101053.22;2211753;39;114571;-56
2021/07/03 03:27:13;;;;;;;;;;;;;;;23.00;56.03;101058.03;2211436;39;115607;-56
2021/07/03 03:28:45;;;;;;;;;;;;;;;22.97;56.02;101056.72;2210856;39;116167;-57
2021/07/03 03:30:17;;;;;;;;;;;;;;;22.99;56.02;101048.75;2211413;39;115645;-56
2021/07/03 03:31:48;;;;;;;;;;;;;;;22.99;56.09;101040.28;2211140;39;115626;-56
2021/07/03 03:33:20;;;;;;;;;;;;;;;22.99;56.22;101042.28;2211606;39;115628;-56
2021/07/03 03:35:12;;;;;;;;;;;;;;;22.97;56.22;101034.16;2211244;39;117285;-56
2021/07/03 03:36:43;;;;;;;;;;;;;;;22.99;56.33;101031.00;2211721;39;115441;-55
2021/07/03 03:38:15;;;;;;;;;;;;;;;23.00;56.32;101012.94;2208814;39;115465;-56
2021/07/03 03:39:47;;;;;;;;;;;;;;;23.01;56.30;101011.78;2213898;39;114881;-56
2021/07/03 03:41:20;;;;;;;;;;;;;;;23.00;56.19;101012.94;2211277;39;113751;-56
2021/07/03 03:42:52;;;;;;;;;;;;;;;23.00;56.17;101010.13;2211317;39;114040;-56
2021/07/03 03:44:23;;;;;;;;;;;;;;;22.99;56.29;101003.66;2211522;39;113820;-58
2021/07/03 03:45:59;;;;;;;;;;;;;;;23.00;56.28;101002.50;2208578;39;114033;-56
2021/07/03 03:47:31;;;;;;;;;;;;;;;22.97;56.40;101005.97;2211225;39;113707;-56
2021/07/03 03:49:03;;;;;;;;;;;;;;;22.99;56.41;101006.47;2211117;39;114172;-57
2021/07/03 03:50:35;;;;;;;;;;;;;;;22.98;56.50;101013.28;2208882;39;113671;-57
2021/07/03 03:52:09;;;;;;;;;;;;;;;22.96;56.56;101009.13;2211763;39;113715;-56
2021/07/03 03:53:41;;;;;;;;;;;;;;;22.99;56.48;101000.00;2210872;39;114088;-56
2021/07/03 03:55:12;;;;;;;;;;;;;;;22.99;56.69;101002.81;2205828;39;113843;-56
2021/07/03 03:56:44;;;;;;;;;;;;;;;23.00;56.81;101007.31;2207873;39;113707;-56
2021/07/03 03:58:16;;;;;;;;;;;;;;;23.00;56.68;101004.50;2210116;39;113820;-56
2021/07/03 03:59:50;;;;;;;;;;;;;;;23.00;56.82;101005.31;2211614;39;113673;-56
2021/07/03 04:01:21;;;;;;;;;;;;;;;22.99;56.77;101000.84;2214131;39;113935;-56
2021/07/03 04:02:53;;;;;;;;;;;;;;;23.00;56.77;101007.31;2211691;39;115163;-61
2021/07/03 04:04:25;;;;;;;;;;;;;;;22.99;56.91;101008.47;2211315;39;115061;-56
2021/07/03 04:05:57;;;;;;;;;;;;;;;22.96;57.08;101004.31;2209833;39;115188;-56
2021/07/03 04:07:28;;;;;;;;;;;;;;;22.98;57.09;101002.03;2209637;39;114785;-56
2021/07/03 04:09:00;;;;;;;;;;;;;;;22.98;57.00;100998.38;2210940;39;114821;-56
2021/07/03 04:10:32;;;;;;;;;;;;;;;22.95;57.07;101008.28;2211393;39;113786;-57
2021/07/03 04:12:04;;;;;;;;;;;;;;;22.98;57.00;101001.19;2211015;39;114834;-55
2021/07/03 04:13:36;;;;;;;;;;;;;;;22.98;57.19;101001.19;2211512;39;114815;-56
2021/07/03 04:15:10;;;;;;;;;;;;;;;22.97;57.23;101003.16;2210948;39;114710;-56
2021/07/03 04:16:41;;;;;;;;;;;;;;;22.97;57.08;101003.16;2209792;39;115422;-56
2021/07/03 04:18:13;;;;;;;;;;;;;;;22.97;57.09;101002.34;2207001;39;115640;-56
2021/07/03 04:19:45;;;;;;;;;;;;;;;22.99;57.23;101002.81;2210502;39;114710;-55
2021/07/03 04:21:20;;;;;;;;;;;;;;;22.94;57.24;101006.59;2209162;39;114709;-56
2021/07/03 04:22:51;;;;;;;;;;;;;;;22.96;57.14;100986.56;2213901;39;115524;-56
2021/07/03 04:24:23;;;;;;;;;;;;;;;22.99;57.29;100988.72;2210077;39;114785;-56
2021/07/03 04:25:55;;;;;;;;;;;;;;;23.00;57.18;100981.94;2211299;39;116008;-56
2021/07/03 04:27:27;;;;;;;;;;;;;;;22.99;57.21;100975.47;2211440;39;114568;-56
2021/07/03 04:28:58;;;;;;;;;;;;;;;23.00;57.10;100976.31;2211302;39;115498;-56
2021/07/03 04:30:30;;;;;;;;;;;;;;;22.99;57.26;100980.28;2209610;39;114869;-56
2021/07/03 04:32:02;;;;;;;;;;;;;;;23.00;57.14;100981.94;2211142;39;115630;-56
2021/07/03 04:33:33;;;;;;;;;;;;;;;23.00;57.27;100976.31;2210350;39;116457;-56
2021/07/03 04:35:06;;;;;;;;;;;;;;;23.03;57.18;100986.97;2208736;39;115348;-56
2021/07/03 04:36:37;;;;;;;;;;;;;;;23.00;57.07;100979.13;2209509;39;116050;-57
2021/07/03 04:38:09;;;;;;;;;;;;;;;23.00;57.28;100984.75;2211063;39;115576;-56
2021/07/03 04:39:41;;;;;;;;;;;;;;;23.01;57.35;100980.78;2211302;39;115514;-56
2021/07/03 04:41:12;;;;;;;;;;;;;;;23.01;57.28;100978.81;2210972;39;115591;-57
2021/07/03 04:42:44;;;;;;;;;;;;;;;22.99;57.40;100980.28;2210479;39;115577;-56
2021/07/03 04:44:17;;;;;;;;;;;;;;;22.97;57.34;100972.16;2210672;39;115495;-61
2021/07/03 04:45:48;;;;;;;;;;;;;;;22.99;57.36;100972.66;2206266;39;113860;-57
2021/07/03 04:47:20;;;;;;;;;;;;;;;22.98;57.35;100967.38;2209261;39;113599;-56
2021/07/03 04:48:52;;;;;;;;;;;;;;;22.99;57.37;100975.47;2210608;39;113852;-56
2021/07/03 04:50:23;;;;;;;;;;;;;;;23.00;57.40;100976.31;2209875;39;113973;-56
2021/07/03 04:51:55;;;;;;;;;;;;;;;22.99;57.51;100974.63;2211095;39;114087;-56
2021/07/03 04:53:27;;;;;;;;;;;;;;;22.97;57.49;100976.97;2210923;39;113604;-56
2021/07/03 04:54:58;;;;;;;;;;;;;;;22.98;57.56;100970.19;2210795;39;113781;-56
2021/07/03 04:56:30;;;;;;;;;;;;;;;22.98;57.59;100971.03;2211130;39;113690;-56
2021/07/03 04:58:02;;;;;;;;;;;;;;;22.98;57.58;100965.38;2209917;39;113651;-56
2021/07/03 04:59:41;;;;;;;;;;;;;;;23.00;57.66;100965.03;2210905;39;114789;-57
2021/07/03 05:01:13;;;;;;;;;;;;;;;22.99;57.56;100966.19;2211298;39;113639;-56
2021/07/03 05:02:44;;;;;;;;;;;;;;;22.99;57.56;100963.38;2207870;39;113896;-58
2021/07/03 05:04:16;;;;;;;;;;;;;;;23.00;57.63;100965.03;2205498;39;113905;-56
2021/07/03 05:05:47;;;;;;;;;;;;;;;22.99;57.66;100969.00;2206538;39;113572;-56
2021/07/03 05:07:19;;;;;;;;;;;;;;;23.01;57.62;100970.34;2213879;39;113727;-56
2021/07/03 05:08:51;;;;;;;;;;;;;;;23.03;57.87;100975.69;2210146;39;114262;-57
2021/07/03 05:10:22;;;;;;;;;;;;;;;23.02;57.78;100976.84;2210909;39;114715;-56
2021/07/03 05:11:54;;;;;;;;;;;;;;;23.03;57.89;100981.31;2211227;39;115524;-56
2021/07/03 05:13:25;;;;;;;;;;;;;;;23.02;57.66;100979.66;2210994;39;114929;-56
2021/07/03 05:14:57;;;;;;;;;;;;;;;23.02;57.94;100976.84;2210756;39;114947;-56
2021/07/03 05:16:29;;;;;;;;;;;;;;;23.03;57.93;100984.13;2213139;39;115637;-56
2021/07/03 05:18:02;;;;;;;;;;;;;;;23.03;57.84;100986.97;2213398;39;114485;-56
2021/07/03 05:19:34;;;;;;;;;;;;;;;23.04;57.96;100991.41;2211412;39;114741;-56
2021/07/03 05:21:06;;;;;;;;;;;;;;;23.04;57.86;100989.44;2209314;39;113904;-56
2021/07/03 05:22:37;;;;;;;;;;;;;;;23.06;57.97;100994.75;2210086;39;115184;-57
2021/07/03 05:24:10;;;;;;;;;;;;;;;23.07;58.03;100995.59;2211018;39;114750;-56
2021/07/03 05:25:44;;;;;;;;;;;;;;;23.05;58.05;101001.53;2210439;39;114801;-56
2021/07/03 05:27:15;;;;;;;;;;;;;;;23.04;57.95;100997.88;2211164;39;114830;-56
2021/07/03 05:28:47;;;;;;;;;;;;;;;23.05;57.85;100999.56;2213636;39;113828;-57
2021/07/03 05:30:19;;;;;;;;;;;;;;;23.05;57.88;101001.53;2210916;39;115609;-56
2021/07/03 05:31:51;;;;;;;;;;;;;;;23.06;57.91;101000.38;2210944;39;114476;-58
2021/07/03 05:33:23;;;;;;;;;;;;;;;23.08;57.90;100986.78;2211305;39;115592;-56
2021/07/03 05:34:54;;;;;;;;;;;;;;;23.05;57.67;100979.00;2210349;39;115564;-56
2021/07/03 05:36:27;;;;;;;;;;;;;;;23.05;57.59;100982.63;2208494;39;115426;-56
2021/07/03 05:37:58;;;;;;;;;;;;;;;23.05;57.74;100988.28;2211597;39;115496;-56
2021/07/03 05:39:30;;;;;;;;;;;;;;;23.05;57.70;100993.06;2211638;39;115565;-56
2021/07/03 05:41:02;;;;;;;;;;;;;;;23.05;57.69;100987.44;2211700;39;115818;-56
2021/07/03 05:42:33;;;;;;;;;;;;;;;23.06;57.70;100986.28;2211397;39;115352;-56
2021/07/03 05:44:05;;;;;;;;;;;;;;;23.05;57.66;100973.34;2211588;39;115600;-56
2021/07/03 05:45:37;;;;;;;;;;;;;;;23.07;57.74;100976.69;2211475;39;115592;-56
2021/07/03 05:47:08;;;;;;;;;;;;;;;23.07;57.93;100976.69;2211310;39;115409;-57
2021/07/03 05:48:41;;;;;;;;;;;;;;;23.05;57.67;100982.63;2212364;39;115439;-59
2021/07/03 05:50:13;;;;;;;;;;;;;;;23.08;57.78;100992.41;2212555;39;114376;-56
2021/07/03 05:51:45;;;;;;;;;;;;;;;23.07;57.72;101004.88;2208342;39;113880;-56
2021/07/03 05:53:17;;;;;;;;;;;;;;;23.07;57.71;101004.88;2209628;39;113737;-56
2021/07/03 05:54:49;;;;;;;;;;;;;;;23.09;57.83;101002.53;2211016;39;113719;-56
2021/07/03 05:56:21;;;;;;;;;;;;;;;23.08;57.78;101000.88;2211428;39;113657;-56
2021/07/03 05:57:52;;;;;;;;;;;;;;;23.09;57.84;100994.09;2211901;39;113997;-56
2021/07/03 05:59:24;;;;;;;;;;;;;;;23.10;57.85;100980.84;2209620;39;114014;-56
2021/07/03 06:00:56;;;;;;;;;;;;;;;23.08;57.80;100967.06;2212233;39;113572;-56
2021/07/03 06:02:27;;;;;;;;;;;;;;;23.06;57.79;100966.56;2211815;39;113570;-56
2021/07/03 06:03:59;;;;;;;;;;;;;;;23.07;57.75;100961.75;2210369;39;114193;-57
2021/07/03 06:05:31;;;;;;;;;;;;;;;23.07;57.74;100973.88;2211175;39;113692;-56
2021/07/03 06:07:02;;;;;;;;;;;;;;;23.07;57.82;100971.06;2210844;39;113611;-56
2021/07/03 06:08:34;;;;;;;;;;;;;;;23.08;57.86;100969.06;2211271;39;113756;-56
2021/07/03 06:10:06;;;;;;;;;;;;;;;23.10;57.57;100975.19;2212123;39;113714;-56
2021/07/03 06:11:38;;;;;;;;;;;;;;;23.08;57.72;100961.41;2214165;39;114443;-56
2021/07/03 06:13:09;;;;;;;;;;;;;;;23.09;57.80;100967.88;2210957;39;114716;-56
2021/07/03 06:14:41;;;;;;;;;;;;;;;23.07;57.82;100971.06;2213493;39;114956;-56
2021/07/03 06:16:13;;;;;;;;;;;;;;;23.08;57.74;100977.53;2211955;39;114708;-56
2021/07/03 06:17:44;;;;;;;;;;;;;;;23.08;57.58;100983.97;2209607;39;114360;-56
2021/07/03 06:19:19;;;;;;;;;;;;;;;23.07;57.67;100981.50;2211597;39;115045;-56
2021/07/03 06:20:51;;;;;;;;;;;;;;;23.07;57.81;100985.16;2209430;39;115073;-56
2021/07/03 06:22:23;;;;;;;;;;;;;;;23.08;57.68;100981.16;2211669;39;114849;-56
2021/07/03 06:23:55;;;;;;;;;;;;;;;23.07;57.71;100973.03;2211654;39;114740;-56
2021/07/03 06:25:26;;;;;;;;;;;;;;;23.05;57.70;100979.81;2208837;39;114793;-57
2021/07/03 06:26:58;;;;;;;;;;;;;;;23.05;57.60;100973.34;2210861;39;114719;-56
2021/07/03 06:28:31;;;;;;;;;;;;;;;23.06;57.75;100975.03;2211481;39;113747;-56
2021/07/03 06:30:04;;;;;;;;;;;;;;;23.10;57.79;100986.47;2211834;39;114759;-56
2021/07/03 06:31:35;;;;;;;;;;;;;;;23.09;57.64;100981.97;2211349;39;114631;-56
2021/07/03 06:33:07;;;;;;;;;;;;;;;23.08;57.66;100981.16;2214190;39;114830;-56
2021/07/03 06:34:39;;;;;;;;;;;;;;;23.08;57.61;100980.34;2212131;39;115784;-56
2021/07/03 06:36:10;;;;;;;;;;;;;;;23.08;57.65;100985.97;2210695;39;115543;-56
2021/07/03 06:37:42;;;;;;;;;;;;;;;23.07;57.61;100973.88;2210845;39;115680;-56
2021/07/03 06:39:14;;;;;;;;;;;;;;;23.07;57.68;100976.69;2207895;39;115443;-56
2021/07/03 06:40:45;;;;;;;;;;;;;;;23.08;57.66;100975.50;2211925;39;116117;-56
2021/07/03 06:42:17;;;;;;;;;;;;;;;23.07;57.65;100965.41;2211531;39;115566;-56
2021/07/03 06:43:49;;;;;;;;;;;;;;;23.09;57.60;100967.88;2211082;39;115571;-56
2021/07/03 06:45:20;;;;;;;;;;;;;;;23.10;57.68;100959.13;2209911;39;115540;-56
2021/07/03 06:46:52;;;;;;;;;;;;;;;23.09;57.58;100957.44;2211501;39;115072;-56
2021/07/03 06:48:24;;;;;;;;;;;;;;;23.12;57.55;100947.53;2211999;39;115684;-56
2021/07/03 06:49:56;;;;;;;;;;;;;;;23.09;57.71;100950.97;2210950;39;115482;-56
2021/07/03 06:51:27;;;;;;;;;;;;;;;23.09;57.60;100948.16;2211370;39;115221;-56
2021/07/03 06:52:59;;;;;;;;;;;;;;;23.06;57.90;100952.47;2210785;39;115980;-56
2021/07/03 06:54:30;;;;;;;;;;;;;;;23.08;57.64;100954.97;2208859;39;114595;-57
2021/07/03 06:56:02;;;;;;;;;;;;;;;23.08;57.71;100963.44;2213565;39;115477;-56
2021/07/03 06:57:34;;;;;;;;;;;;;;;23.09;57.67;100962.25;2210306;39;113599;-56
2021/07/03 06:59:05;;;;;;;;;;;;;;;23.07;57.67;100965.41;2211290;39;114072;-56
2021/07/03 07:00:37;;;;;;;;;;;;;;;23.08;57.71;100960.63;2211447;39;113992;-56
2021/07/03 07:02:08;;;;;;;;;;;;;;;23.07;57.83;100965.41;2211423;39;113754;-56
2021/07/03 07:03:40;;;;;;;;;;;;;;;23.07;57.58;100967.41;2211529;39;113899;-56
2021/07/03 07:05:12;;;;;;;;;;;;;;;23.07;57.72;100971.06;2211270;39;113775;-56
2021/07/03 07:06:43;;;;;;;;;;;;;;;23.07;57.82;100973.03;2207480;39;113751;-56
2021/07/03 07:08:15;;;;;;;;;;;;;;;23.05;57.91;100974.19;2211041;39;113566;-56
2021/07/03 07:09:47;;;;;;;;;;;;;;;23.07;57.73;100973.03;2211183;39;113900;-55
2021/07/03 07:11:18;;;;;;;;;;;;;;;23.06;57.85;100969.38;2211113;39;113627;-56
2021/07/03 07:12:50;;;;;;;;;;;;;;;23.04;57.83;100977.31;2211906;39;113620;-56
2021/07/03 07:14:22;;;;;;;;;;;;;;;23.05;58.06;100973.34;2211220;39;113774;-56
2021/07/03 07:15:54;;;;;;;;;;;;;;;23.05;57.96;100974.19;2210537;39;113674;-56
2021/07/03 07:17:26;;;;;;;;;;;;;;;23.05;58.04;100974.19;2213475;39;114619;-56
2021/07/03 07:18:57;;;;;;;;;;;;;;;23.05;57.87;100967.72;2211672;39;115206;-56
2021/07/03 07:20:29;;;;;;;;;;;;;;;23.07;57.97;100964.59;2210946;39;114604;-56
2021/07/03 07:22:01;;;;;;;;;;;;;;;23.08;57.98;100954.97;2207940;39;114952;-56
2021/07/03 07:23:32;;;;;;;;;;;;;;;23.07;57.93;100964.59;2211234;39;115593;-56
2021/07/03 07:25:04;;;;;;;;;;;;;;;23.06;57.87;100960.94;2211695;39;115087;-56
2021/07/03 07:26:36;;;;;;;;;;;;;;;23.08;57.86;100966.25;2210836;39;114831;-56
2021/07/03 07:28:07;;;;;;;;;;;;;;;23.05;57.99;100962.06;2211313;39;114840;-56
2021/07/03 07:29:39;;;;;;;;;;;;;;;23.06;58.14;100972.19;2208499;39;114662;-61
2021/07/03 07:31:18;;;;;;;;;;;;;;;23.06;58.02;100975.03;2210965;39;114143;-56
2021/07/03 07:32:50;;;;;;;;;;;;;;;23.07;58.09;100978.69;2211563;39;114404;-56
2021/07/03 07:34:21;;;;;;;;;;;;;;;23.06;58.11;100983.47;2210921;39;114842;-56
2021/07/03 07:35:53;;;;;;;;;;;;;;;23.08;58.11;100978.31;2207833;39;115562;-56
2021/07/03 07:37:26;;;;;;;;;;;;;;;23.06;58.25;100983.47;2208410;39;114701;-56
2021/07/03 07:38:58;;;;;;;;;;;;;;;23.05;58.29;100987.44;2213777;39;115291;-56
2021/07/03 07:40:29;;;;;;;;;;;;;;;23.10;58.17;100980.84;2210696;39;116219;-57
2021/07/03 07:42:01;;;;;;;;;;;;;;;23.06;58.29;100980.66;2211099;39;115824;-57
2021/07/03 07:43:33;;;;;;;;;;;;;;;23.06;58.36;100975.03;2211892;39;115487;-57
2021/07/03 07:45:05;;;;;;;;;;;;;;;23.04;58.58;100980.13;2211697;39;115776;-58
2021/07/03 07:46:49;;;;;;;;;;;;;;;23.00;58.47;100973.50;2208813;39;116365;-57